Time;durP1;ratioP1;P1;durP2;ratioP2;P2;SDS_P1;SDS_P2;PMS_P1;PMS_P2;Temp;Humidity;BMP_temperature;BMP_pressure;BME280_temperature;BME280_humidity;BME280_pressure;Samples;Min_cycle;Max_cycle;Signal;HPM_P1;HPM_P2
2023/10/28 00:01:06;;;;;;;;;;;;;;;6.17;100.00;97938.13;5054178;28;19917;-89
2023/10/28 00:03:31;;;;;;;;;;;;;;;6.09;100.00;97949.97;5053356;28;19966;-85
2023/10/28 00:05:59;;;;;;;;;;;;;;;6.02;100.00;97944.22;5052838;28;19943;-86
2023/10/28 00:08:24;;;;;;;;;;;;;;;6.06;100.00;97945.72;5052868;28;19943;-90
2023/10/28 00:10:50;;;;;;;;;;;;;;;5.91;100.00;97942.13;5051855;28;19920;-89
2023/10/28 00:13:18;;;;;;;;;;;;;;;5.93;100.00;97945.50;5051179;28;20368;-93
2023/10/28 00:15:44;;;;;;;;;;;;;;;5.93;100.00;97957.81;5054592;28;19916;-91
2023/10/28 05:18:04;;;;;;;;;;;;;;;7.94;100.00;97923.56;4990839;28;20009;-84
2023/10/28 05:20:35;;;;;;;;;;;;;;;7.92;100.00;97922.81;4992696;28;19922;-90
2023/10/28 05:23:00;;;;;;;;;;;;;;;7.94;100.00;97923.56;4991021;28;19918;-89
2023/10/28 05:25:28;;;;;;;;;;;;;;;7.92;100.00;97925.44;4992514;28;20319;-87
2023/10/28 05:27:53;;;;;;;;;;;;;;;7.94;100.00;97929.69;4974339;28;20395;-87
2023/10/28 05:30:19;;;;;;;;;;;;;;;7.94;100.00;97929.69;4973946;28;19918;-89
2023/10/28 05:32:44;;;;;;;;;;;;;;;8.01;100.00;97930.16;4975232;28;19925;-88
2023/10/28 05:35:11;;;;;;;;;;;;;;;8.02;100.00;97931.84;4974959;28;20013;-88
2023/10/28 05:37:36;;;;;;;;;;;;;;;8.02;100.00;97936.28;4977620;28;19922;-87
2023/10/28 05:40:02;;;;;;;;;;;;;;;8.01;100.00;97935.44;4996378;28;19918;-87
2023/10/28 05:42:30;;;;;;;;;;;;;;;8.01;100.00;97938.09;4979633;28;19917;-89
2023/10/28 05:44:56;;;;;;;;;;;;;;;8.04;100.00;97940.53;4976906;28;19917;-85
2023/10/28 05:47:21;;;;;;;;;;;;;;;8.05;100.00;97936.94;4996468;28;20056;-86
2023/10/28 05:49:47;;;;;;;;;;;;;;;8.10;100.00;97950.69;4996392;28;19980;-86
2023/10/28 05:52:13;;;;;;;;;;;;;;;8.11;100.00;97946.28;4978486;28;19951;-88
2023/10/28 05:54:38;;;;;;;;;;;;;;;8.11;100.00;97936.56;4978728;28;20028;-87
2023/10/28 05:57:04;;;;;;;;;;;;;;;8.07;100.00;97940.31;4978551;28;19928;-88
2023/10/28 05:59:31;;;;;;;;;;;;;;;8.05;100.00;97942.22;4978048;28;19932;-87
2023/10/28 06:01:57;;;;;;;;;;;;;;;8.12;100.00;97950.59;4977497;28;20036;-86
2023/10/28 06:04:22;;;;;;;;;;;;;;;8.12;100.00;97940.91;4994648;28;20361;-85
2023/10/28 06:06:48;;;;;;;;;;;;;;;8.12;100.00;97946.19;4995990;28;19921;-84
2023/10/28 06:09:14;;;;;;;;;;;;;;;8.16;100.00;97955.56;4995948;28;19918;-84
2023/10/28 06:11:40;;;;;;;;;;;;;;;8.17;100.00;97956.44;4995911;28;19918;-83
2023/10/28 06:14:05;;;;;;;;;;;;;;;8.18;100.00;97951.06;4995704;28;20001;-84
2023/10/28 06:16:30;;;;;;;;;;;;;;;8.16;100.00;97949.47;4973700;28;19922;-84
2023/10/28 06:18:56;;;;;;;;;;;;;;;8.17;100.00;97948.53;4976376;28;20365;-85
2023/10/28 06:21:21;;;;;;;;;;;;;;;8.17;100.00;97946.72;4976185;28;19973;-84
2023/10/28 06:23:47;;;;;;;;;;;;;;;8.22;100.00;97953.50;4975376;28;19922;-85
2023/10/28 06:26:13;;;;;;;;;;;;;;;8.29;100.00;97952.19;4976104;28;20373;-84
2023/10/28 06:28:38;;;;;;;;;;;;;;;8.30;100.00;97960.00;4974792;28;19922;-85
2023/10/28 06:31:03;;;;;;;;;;;;;;;8.30;100.00;97967.91;4974659;28;20281;-84
2023/10/28 06:33:29;;;;;;;;;;;;;;;8.32;100.00;97971.31;4974910;28;19922;-84
2023/10/28 06:35:54;;;;;;;;;;;;;;;8.29;100.00;97965.38;4975938;28;20333;-85
2023/10/28 06:38:20;;;;;;;;;;;;;;;8.30;100.00;97972.34;4975961;28;19922;-82
2023/10/28 06:40:47;;;;;;;;;;;;;;;8.31;100.00;97974.03;4990847;28;19918;-82
2023/10/28 06:43:13;;;;;;;;;;;;;;;8.36;100.00;97982.53;4975649;28;20399;-82
2023/10/28 06:45:38;;;;;;;;;;;;;;;8.37;100.00;97989.50;4974569;28;19919;-83
2023/10/28 06:48:03;;;;;;;;;;;;;;;8.42;100.00;97992.69;4973712;28;20012;-84
2023/10/28 06:50:29;;;;;;;;;;;;;;;8.42;100.00;97997.97;4974995;28;19918;-84
2023/10/28 06:52:54;;;;;;;;;;;;;;;8.46;100.00;97994.22;4975920;28;19925;-85
2023/10/28 06:55:20;;;;;;;;;;;;;;;8.46;100.00;97998.66;4974393;28;20064;-85
2023/10/28 06:57:45;;;;;;;;;;;;;;;8.49;100.00;97999.31;4975458;28;19972;-85
2023/10/28 07:00:13;;;;;;;;;;;;;;;8.52;100.00;98004.41;4973064;28;19926;-85
2023/10/28 07:02:42;;;;;;;;;;;;;;;8.58;100.00;98007.59;4974390;28;19941;-84
2023/10/28 07:05:08;;;;;;;;;;;;;;;8.60;100.00;98016.25;4975209;28;19923;-85
2023/10/28 07:07:34;;;;;;;;;;;;;;;8.51;100.00;98012.44;4990662;28;19919;-85
2023/10/28 07:09:59;;;;;;;;;;;;;;;8.47;100.00;98017.06;4975678;28;20415;-85
2023/10/28 08:14:03;;;;;;;;;;;;;;;8.76;100.00;98080.38;4972558;28;19971;-85
2023/10/28 08:16:28;;;;;;;;;;;;;;;8.80;100.00;98081.03;5003199;28;20364;-84
2023/10/28 08:18:54;;;;;;;;;;;;;;;8.79;100.00;98069.63;5003302;28;19956;-89
2023/10/28 08:21:20;;;;;;;;;;;;;;;8.80;100.00;98081.88;5003532;28;19917;-82
2023/10/28 08:23:45;;;;;;;;;;;;;;;8.84;100.00;98083.41;5002985;28;19943;-86
2023/10/28 08:26:11;;;;;;;;;;;;;;;8.85;100.00;98087.72;5001788;28;20449;-84
2023/10/28 08:28:37;;;;;;;;;;;;;;;8.87;100.00;98080.56;5009173;28;19961;-84
2023/10/28 08:31:02;;;;;;;;;;;;;;;8.85;100.00;98086.88;5001630;28;20344;-86
2023/10/28 08:33:28;;;;;;;;;;;;;;;8.88;100.00;98079.59;4986079;28;19921;-87
2023/10/28 08:35:56;;;;;;;;;;;;;;;8.88;100.00;98084.88;4985775;28;20315;-87
2023/10/28 08:38:21;;;;;;;;;;;;;;;8.89;100.00;98091.03;4985612;28;20363;-89
2023/10/28 08:40:47;;;;;;;;;;;;;;;8.91;100.00;98092.59;4984990;28;19961;-84
2023/10/28 08:43:16;;;;;;;;;;;;;;;8.93;100.00;98092.50;4984370;28;19922;-86
2023/10/28 08:45:42;;;;;;;;;;;;;;;8.97;100.00;98088.75;5001106;28;19918;-88
2023/10/28 08:48:10;;;;;;;;;;;;;;;8.01;100.00;98093.69;5001235;28;19933;-83
2023/10/28 08:50:38;;;;;;;;;;;;;;;7.06;100.00;98111.34;5002457;28;20005;-85
2023/10/28 08:53:03;;;;;;;;;;;;;;;6.73;100.00;98114.91;5003813;28;20011;-88
2023/10/28 08:55:30;;;;;;;;;;;;;;;6.52;100.00;98124.78;5000448;28;20443;-82
2023/10/28 08:57:55;;;;;;;;;;;;;;;6.41;100.00;98128.91;5001126;28;19918;-83
2023/10/28 09:00:23;;;;;;;;;;;;;;;6.26;100.00;98126.16;5002412;28;20289;-82
2023/10/28 09:02:49;;;;;;;;;;;;;;;6.20;100.00;98131.72;5003221;28;19971;-82
2023/10/28 09:05:15;;;;;;;;;;;;;;;6.11;100.00;98138.31;5002800;28;20012;-83
2023/10/28 09:07:41;;;;;;;;;;;;;;;6.05;100.00;98141.25;5002494;28;20344;-84
2023/10/28 09:10:06;;;;;;;;;;;;;;;5.96;100.00;98152.19;5002132;28;19924;-82
2023/10/28 09:12:32;;;;;;;;;;;;;;;5.99;100.00;98162.59;5000444;28;20025;-84
2023/10/28 09:14:57;;;;;;;;;;;;;;;5.84;100.00;98156.31;5001237;28;20019;-83
2023/10/28 09:17:22;;;;;;;;;;;;;;;5.86;100.00;98145.72;5003166;28;20004;-83
2023/10/28 09:19:51;;;;;;;;;;;;;;;5.84;100.00;98156.31;5001694;28;19972;-86
2023/10/28 09:22:16;;;;;;;;;;;;;;;5.80;100.00;98152.94;5002599;28;19929;-84
2023/10/28 09:24:45;;;;;;;;;;;;;;;5.77;100.00;98155.72;5003084;28;19980;-84
2023/10/28 09:27:10;;;;;;;;;;;;;;;5.73;100.00;98155.97;5001531;28;19918;-84
2023/10/28 09:29:35;;;;;;;;;;;;;;;5.70;100.00;98164.00;5002733;28;19949;-85
2023/10/28 09:32:08;;;;;;;;;;;;;;;5.66;100.00;98162.44;5002457;28;19918;-85
2023/10/28 09:34:40;;;;;;;;;;;;;;;5.69;100.00;98163.13;5001453;28;19918;-85
2023/10/28 09:37:09;;;;;;;;;;;;;;;5.62;100.00;98162.59;5002674;28;19928;-85
2023/10/28 09:39:35;;;;;;;;;;;;;;;5.59;100.00;98162.75;5002258;28;19922;-86
2023/10/28 09:42:01;;;;;;;;;;;;;;;5.55;100.00;98161.19;5001304;28;19920;-86
2023/10/28 09:44:27;;;;;;;;;;;;;;;5.57;100.00;98164.59;4984737;28;19926;-84
2023/10/28 09:46:58;;;;;;;;;;;;;;;5.54;100.00;98164.75;4999520;28;19968;-85
2023/10/28 09:49:27;;;;;;;;;;;;;;;5.57;100.00;98166.38;5000031;28;19917;-86
2023/10/28 09:51:53;;;;;;;;;;;;;;;5.50;100.00;98165.81;5001223;28;19917;-87
2023/10/28 09:54:24;;;;;;;;;;;;;;;5.54;100.00;98167.38;5002061;28;19959;-85
2023/10/28 09:56:51;;;;;;;;;;;;;;;5.45;100.00;98165.19;4982955;28;20016;-86
2023/10/28 09:59:20;;;;;;;;;;;;;;;5.49;100.00;98166.75;5001824;28;19921;-84
2023/10/28 10:02:18;;;;;;;;;;;;;;;5.48;100.00;98165.03;5001395;28;20054;-84
2023/10/28 10:04:43;;;;;;;;;;;;;;;5.46;100.00;98166.88;4952631;28;19917;-86
2023/10/28 10:07:09;;;;;;;;;;;;;;;5.48;100.00;98165.03;5002404;28;19968;-85
2023/10/28 10:09:44;;;;;;;;;;;;;;;6.16;100.00;98165.22;5002879;28;19921;-87
2023/10/28 10:12:10;;;;;;;;;;;;;;;6.77;100.00;98165.59;5000310;28;20398;-85
2023/10/28 10:14:37;;;;;;;;;;;;;;;7.07;100.00;98164.91;5002190;28;19936;-87
2023/10/28 10:17:05;;;;;;;;;;;;;;;7.29;100.00;98175.09;5002554;28;19918;-84
2023/10/28 10:19:34;;;;;;;;;;;;;;;7.44;100.00;98161.06;4984197;28;20328;-86
2023/10/28 10:22:03;;;;;;;;;;;;;;;7.59;100.00;98169.06;5002277;28;19929;-84
2023/10/28 10:24:29;;;;;;;;;;;;;;;7.70;100.00;98166.66;5003815;28;19917;-83
2023/10/28 10:26:55;;;;;;;;;;;;;;;7.81;100.00;98166.88;5004462;28;19917;-83
2023/10/28 10:29:20;;;;;;;;;;;;;;;7.90;100.00;98164.69;5005521;28;19921;-83
2023/10/28 10:31:49;;;;;;;;;;;;;;;7.99;100.00;98166.78;5005771;28;19925;-90
2023/10/28 10:37:31;;;;;;;;;;;;;;;8.22;100.00;98159.28;5006042;28;19963;-88
2023/10/28 10:40:07;;;;;;;;;;;;;;;8.30;100.00;98157.91;5004837;28;19921;-83
2023/10/28 10:42:32;;;;;;;;;;;;;;;8.34;100.00;98148.88;5004478;28;20265;-84
2023/10/28 10:44:58;;;;;;;;;;;;;;;8.44;100.00;98153.63;5004968;28;19926;-83
2023/10/28 10:47:27;;;;;;;;;;;;;;;8.51;100.00;98149.69;5004037;28;19988;-85
2023/10/28 10:49:53;;;;;;;;;;;;;;;8.57;100.00;98144.03;5005044;28;19917;-82
2023/10/28 10:52:19;;;;;;;;;;;;;;;8.65;100.00;98146.22;5004717;28;19921;-88
2023/10/28 10:54:44;;;;;;;;;;;;;;;8.70;100.00;98133.56;5004449;28;20004;-91
2023/10/28 10:57:10;;;;;;;;;;;;;;;8.73;100.00;98143.97;5004013;28;19921;-84
2023/10/28 10:59:36;;;;;;;;;;;;;;;8.83;100.00;98131.03;5005418;28;19918;-84
2023/10/28 11:02:02;;;;;;;;;;;;;;;8.87;100.00;98132.50;5004804;28;19924;-86
2023/10/28 11:04:31;;;;;;;;;;;;;;;8.93;100.00;98126.84;5002187;28;20372;-84
2023/10/28 11:06:57;;;;;;;;;;;;;;;8.97;100.00;98123.09;5005192;28;19917;-85
2023/10/28 11:09:22;;;;;;;;;;;;;;;9.00;100.00;98124.66;5004979;28;19917;-88
2023/10/28 11:11:48;;;;;;;;;;;;;;;8.11;100.00;98115.94;4985486;28;19940;-88
2023/10/28 11:14:13;;;;;;;;;;;;;;;7.23;100.00;98120.13;5004775;28;19925;-85
2023/10/28 11:16:41;;;;;;;;;;;;;;;6.87;100.00;98122.03;5004504;28;19918;-88
2023/10/28 11:19:32;;;;;;;;;;;;;;;6.69;100.00;98121.25;5005226;28;20004;-86
2023/10/28 11:22:20;;;;;;;;;;;;;;;;;;;;;
2023/10/28 11:24:53;;;;;;;;;;;;;;;6.60;100.00;98118.28;5004729;28;19932;-91
2023/10/28 11:27:24;;;;;;;;;;;;;;;6.43;100.00;98108.63;5003627;28;19968;-93
2023/10/28 11:29:50;;;;;;;;;;;;;;;6.40;100.00;98106.16;5004075;28;19918;-90
2023/10/28 11:32:15;;;;;;;;;;;;;;;6.33;100.00;98109.13;5004705;28;19925;-91
2023/10/28 11:34:41;;;;;;;;;;;;;;;6.32;100.00;98111.84;5005231;28;19929;-87
2023/10/28 11:37:09;;;;;;;;;;;;;;;6.31;100.00;98107.50;5004662;28;19921;-90
2023/10/28 11:39:35;;;;;;;;;;;;;;;6.27;100.00;98114.72;5006391;28;19918;-90
2023/10/28 11:42:13;;;;;;;;;;;;;;;6.25;100.00;98115.72;4986309;28;19918;-87
2023/10/28 11:44:39;;;;;;;;;;;;;;;6.18;100.00;98117.81;5003088;28;20269;-92
2023/10/28 11:47:05;;;;;;;;;;;;;;;6.12;100.00;98110.22;5004070;28;20442;-88
2023/10/28 11:49:30;;;;;;;;;;;;;;;6.12;100.00;98104.97;5005697;28;19918;-88
2023/10/28 11:51:55;;;;;;;;;;;;;;;6.04;100.00;98110.63;5004162;28;19984;-91
2023/10/28 11:54:22;;;;;;;;;;;;;;;6.10;100.00;98104.22;5003496;28;19918;-90
2023/10/28 11:56:47;;;;;;;;;;;;;;;6.04;100.00;98100.09;4984565;28;20279;-89
2023/10/28 11:59:12;;;;;;;;;;;;;;;6.05;100.00;98108.81;5005111;28;19924;-89
2023/10/28 12:01:38;;;;;;;;;;;;;;;6.00;100.00;98104.69;5003907;28;19918;-87
2023/10/28 12:04:03;;;;;;;;;;;;;;;5.98;100.00;98103.03;5003927;28;19921;-86
2023/10/28 12:06:31;;;;;;;;;;;;;;;5.94;100.00;98110.22;5004989;28;19924;-88
2023/10/28 12:09:00;;;;;;;;;;;;;;;5.96;100.00;98112.75;5003642;28;20077;-88
2023/10/28 12:11:26;;;;;;;;;;;;;;;5.97;100.00;98107.47;5002963;28;19917;-83
2023/10/28 12:13:51;;;;;;;;;;;;;;;5.97;100.00;98110.09;5002066;28;19925;-89
2023/10/28 12:16:16;;;;;;;;;;;;;;;5.95;100.00;98117.19;5003572;28;19918;-87
2023/10/28 12:18:42;;;;;;;;;;;;;;;5.87;100.00;98124.59;4986359;28;19917;-88
2023/10/28 12:21:08;;;;;;;;;;;;;;;5.87;100.00;98126.38;5004863;28;19972;-88
2023/10/28 12:23:33;;;;;;;;;;;;;;;5.87;100.00;98126.38;5005163;28;19940;-88
2023/10/28 12:25:58;;;;;;;;;;;;;;;5.86;100.00;98130.78;5005462;28;20373;-87
2023/10/28 12:28:24;;;;;;;;;;;;;;;5.85;100.00;98129.06;5004185;28;19917;-90
2023/10/28 12:30:49;;;;;;;;;;;;;;;5.81;100.00;98136.25;5004113;28;19968;-92
2023/10/28 12:33:16;;;;;;;;;;;;;;;5.85;100.00;98142.22;5003176;28;20020;-83
2023/10/28 12:35:41;;;;;;;;;;;;;;;5.78;100.00;98140.81;5003683;28;19964;-86
2023/10/28 12:38:07;;;;;;;;;;;;;;;5.81;100.00;98145.94;5003651;28;19966;-85
2023/10/28 12:40:32;;;;;;;;;;;;;;;5.81;100.00;98152.03;5003482;28;19917;-87
2023/10/28 12:42:57;;;;;;;;;;;;;;;5.77;100.00;98157.50;5003235;28;19929;-87
2023/10/28 12:45:23;;;;;;;;;;;;;;;5.72;100.00;98149.00;5004154;28;19963;-85
2023/10/28 12:47:49;;;;;;;;;;;;;;;5.79;100.00;98153.03;5003039;28;20368;-88
2023/10/28 12:50:17;;;;;;;;;;;;;;;5.73;100.00;98142.84;5002767;28;19913;-91
2023/10/28 12:52:42;;;;;;;;;;;;;;;5.75;100.00;98135.72;5001447;28;19918;-86
2023/10/28 12:57:56;;;;;;;;;;;;;;;5.73;100.00;98132.31;4995102;28;19917;-84
2023/10/28 13:00:21;;;;;;;;;;;;;;;5.75;100.00;98130.47;5002649;28;19928;-87
2023/10/28 13:02:48;;;;;;;;;;;;;;;5.74;100.00;98126.97;5003015;28;19914;-84
2023/10/28 13:05:13;;;;;;;;;;;;;;;5.75;100.00;98120.78;4985224;28;20372;-86
2023/10/28 13:07:40;;;;;;;;;;;;;;;5.77;100.00;98123.34;5001929;28;20298;-90
2023/10/28 13:10:06;;;;;;;;;;;;;;;5.77;100.00;98124.19;5003271;28;19921;-87
2023/10/28 13:12:31;;;;;;;;;;;;;;;5.73;100.00;98111.31;5001338;28;19940;-89
2023/10/28 13:14:57;;;;;;;;;;;;;;;5.71;100.00;98111.38;5003441;28;19925;-83
2023/10/28 13:17:22;;;;;;;;;;;;;;;5.79;100.00;98111.84;5003452;28;19936;-90
2023/10/28 13:19:51;;;;;;;;;;;;;;;5.73;100.00;98114.78;5003146;28;19936;-86
2023/10/28 13:22:17;;;;;;;;;;;;;;;5.71;100.00;98118.38;5002345;28;19925;-85
2023/10/28 13:24:42;;;;;;;;;;;;;;;5.71;100.00;98121.00;4985393;28;19921;-88
2023/10/28 13:27:08;;;;;;;;;;;;;;;5.72;100.00;98118.31;4982214;28;19918;-83
2023/10/28 13:29:33;;;;;;;;;;;;;;;5.65;100.00;98119.56;4985332;28;20399;-86
2023/10/28 13:31:59;;;;;;;;;;;;;;;5.65;100.00;98114.31;5002500;28;19924;-93
2023/10/28 13:34:25;;;;;;;;;;;;;;;5.72;100.00;98120.94;5003945;28;19963;-90
2023/10/28 13:36:50;;;;;;;;;;;;;;;5.68;100.00;98114.16;5003175;28;20384;-87
2023/10/28 13:39:16;;;;;;;;;;;;;;;5.66;100.00;98115.16;5003702;28;19944;-91
2023/10/28 13:41:41;;;;;;;;;;;;;;;5.72;100.00;98122.72;5002700;28;19918;-91
2023/10/28 13:44:07;;;;;;;;;;;;;;;5.71;100.00;98127.16;5002997;28;19918;-92
2023/10/28 13:46:34;;;;;;;;;;;;;;;5.73;100.00;98127.06;5004977;28;20396;-92
2023/10/28 13:49:00;;;;;;;;;;;;;;;5.74;100.00;98136.63;5003926;28;19917;-86
2023/10/28 13:51:26;;;;;;;;;;;;;;;5.70;100.00;98130.69;5004675;28;20174;-91
2023/10/28 13:53:51;;;;;;;;;;;;;;;5.71;100.00;98127.16;5002351;28;19957;-89
2023/10/28 13:56:16;;;;;;;;;;;;;;;5.75;100.00;98131.31;5001851;28;19917;-89
2023/10/28 13:58:41;;;;;;;;;;;;;;;5.77;100.00;98118.09;5006537;28;19925;-88
2023/10/28 14:01:07;;;;;;;;;;;;;;;5.77;100.00;98118.09;5006668;28;19973;-90
2023/10/28 14:03:35;;;;;;;;;;;;;;;5.77;100.00;98118.09;5007309;28;19997;-88
2023/10/28 14:06:04;;;;;;;;;;;;;;;5.76;100.00;98114.63;4988621;28;20001;-93
2023/10/28 14:08:30;;;;;;;;;;;;;;;5.78;100.00;98111.91;5005361;28;20008;-89
2023/10/28 14:10:55;;;;;;;;;;;;;;;5.80;100.00;98118.78;5006154;28;20004;-89
2023/10/28 14:13:21;;;;;;;;;;;;;;;5.77;100.00;98107.56;5004269;28;19971;-87
2023/10/28 14:15:46;;;;;;;;;;;;;;;5.72;100.00;98104.34;5011152;28;19926;-92
2023/10/28 14:18:13;;;;;;;;;;;;;;;5.71;100.00;98102.63;5006035;28;19922;-89
2023/10/28 14:20:38;;;;;;;;;;;;;;;5.69;100.00;98104.47;5006443;28;19918;-88
2023/10/28 14:23:04;;;;;;;;;;;;;;;5.73;100.00;98109.50;5005976;28;19922;-92
2023/10/28 14:25:29;;;;;;;;;;;;;;;5.67;100.00;98108.97;5005909;28;19924;-85
2023/10/28 14:27:54;;;;;;;;;;;;;;;5.64;100.00;98110.81;5004895;28;19921;-84
2023/10/28 14:30:19;;;;;;;;;;;;;;;5.60;100.00;98104.03;5006077;28;19914;-90
2023/10/28 14:32:45;;;;;;;;;;;;;;;5.61;100.00;98097.81;5006161;28;20028;-91
2023/10/28 14:35:10;;;;;;;;;;;;;;;5.67;100.00;98099.31;5005951;28;20277;-86
2023/10/28 14:37:36;;;;;;;;;;;;;;;5.64;100.00;98097.66;5005172;28;20387;-85
2023/10/28 14:40:02;;;;;;;;;;;;;;;5.63;100.00;98103.00;5005764;28;19921;-83
2023/10/28 14:42:28;;;;;;;;;;;;;;;5.62;100.00;98104.78;5004477;28;20427;-84
2023/10/28 14:44:53;;;;;;;;;;;;;;;5.64;100.00;98096.81;5005625;28;20009;-83
2023/10/28 14:47:18;;;;;;;;;;;;;;;5.69;100.00;98083.47;5004857;28;19922;-83
2023/10/28 14:49:44;;;;;;;;;;;;;;;5.72;100.00;98099.06;5004937;28;19924;-82
2023/10/28 14:52:10;;;;;;;;;;;;;;;5.64;100.00;98092.41;5004885;28;20012;-83
2023/10/28 14:54:35;;;;;;;;;;;;;;;5.66;100.00;98099.38;5005534;28;20352;-86
2023/10/28 14:57:00;;;;;;;;;;;;;;;5.62;100.00;98091.66;5003947;28;19921;-86
2023/10/28 14:59:28;;;;;;;;;;;;;;;5.61;100.00;98089.09;5004671;28;19922;-89
2023/10/28 15:01:53;;;;;;;;;;;;;;;5.63;100.00;98095.97;5005698;28;20369;-89
2023/10/28 15:04:19;;;;;;;;;;;;;;;5.63;100.00;98077.59;5004852;28;19965;-84
2023/10/28 15:06:44;;;;;;;;;;;;;;;5.69;100.00;98078.19;5005300;28;19968;-86
2023/10/28 15:09:09;;;;;;;;;;;;;;;5.61;100.00;98074.16;5003695;28;19917;-86
2023/10/28 15:11:36;;;;;;;;;;;;;;;5.61;100.00;98071.53;5003264;28;20272;-84
2023/10/28 15:14:02;;;;;;;;;;;;;;;5.61;100.00;98082.06;5004300;28;19932;-83
2023/10/28 15:16:28;;;;;;;;;;;;;;;5.59;100.00;98070.78;5005066;28;19922;-83
2023/10/28 15:18:54;;;;;;;;;;;;;;;5.60;100.00;98079.50;5011420;28;19925;-86
2023/10/28 15:21:19;;;;;;;;;;;;;;;5.60;100.00;98085.63;5004292;28;19932;-85
2023/10/28 15:23:44;;;;;;;;;;;;;;;5.63;100.00;98074.97;5003467;28;19917;-83
2023/10/28 15:26:10;;;;;;;;;;;;;;;5.60;100.00;98080.38;5003857;28;19972;-84
2023/10/28 15:28:36;;;;;;;;;;;;;;;5.62;100.00;98083.75;5003308;28;20077;-83
2023/10/28 15:31:02;;;;;;;;;;;;;;;5.63;100.00;98068.84;5005294;28;20454;-82
2023/10/28 15:33:27;;;;;;;;;;;;;;;5.58;100.00;98079.56;5003295;28;20003;-84
2023/10/28 15:35:53;;;;;;;;;;;;;;;5.59;100.00;98089.16;5004549;28;20373;-91
2023/10/28 15:38:19;;;;;;;;;;;;;;;5.57;100.00;98082.31;5003992;28;19922;-87
2023/10/28 15:40:54;;;;;;;;;;;;;;;5.58;100.00;98082.19;5003813;28;19922;-89
2023/10/28 15:43:19;;;;;;;;;;;;;;;5.54;100.00;98088.56;5001907;28;20012;-90
2023/10/28 15:45:44;;;;;;;;;;;;;;;5.56;100.00;98088.47;5004072;28;20496;-85
2023/10/28 15:48:09;;;;;;;;;;;;;;;5.61;100.00;98089.94;5003879;28;19956;-84
2023/10/28 15:50:34;;;;;;;;;;;;;;;5.52;100.00;98089.53;5004671;28;19921;-83
2023/10/28 15:53:00;;;;;;;;;;;;;;;5.56;100.00;98084.06;5003419;28;20012;-83
2023/10/28 15:55:25;;;;;;;;;;;;;;;5.60;100.00;98085.63;4986177;28;19970;-83
2023/10/28 15:57:51;;;;;;;;;;;;;;;5.60;100.00;98085.63;5002309;28;19917;-86
2023/10/28 16:00:16;;;;;;;;;;;;;;;5.59;100.00;98083.06;5004585;28;19924;-83
2023/10/28 16:02:51;;;;;;;;;;;;;;;;;;;;;
2023/10/28 16:05:17;;;;;;;;;;;;;;;5.63;100.00;98068.84;5003268;28;19918;-87
2023/10/28 16:07:48;;;;;;;;;;;;;;;5.60;100.00;98063.72;5004498;28;20432;-86
2023/10/28 16:10:14;;;;;;;;;;;;;;;5.62;100.00;98075.88;4985449;28;19924;-87
2023/10/28 16:12:39;;;;;;;;;;;;;;;5.63;100.00;98069.72;5002257;28;19917;-90
2023/10/28 16:15:04;;;;;;;;;;;;;;;5.66;100.00;98076.56;5003280;28;19969;-91
2023/10/28 16:17:30;;;;;;;;;;;;;;;5.60;100.00;98071.63;4985859;28;19921;-90
2023/10/28 16:19:55;;;;;;;;;;;;;;;5.60;100.00;98064.59;5003779;28;19921;-87
2023/10/28 16:22:20;;;;;;;;;;;;;;;5.62;100.00;98067.16;5003105;28;20008;-90
2023/10/28 16:24:46;;;;;;;;;;;;;;;5.61;100.00;98061.03;5004981;28;19926;-92
2023/10/28 16:27:16;;;;;;;;;;;;;;;5.60;100.00;98064.59;5001209;28;20387;-93
2023/10/28 16:30:00;;;;;;;;;;;;;;;5.58;100.00;98066.44;5004933;28;20312;-86
2023/10/28 16:32:25;;;;;;;;;;;;;;;5.53;100.00;98052.69;5002837;28;19964;-86
2023/10/28 16:34:51;;;;;;;;;;;;;;;5.55;100.00;98061.38;5003763;28;19917;-89
2023/10/28 16:37:18;;;;;;;;;;;;;;;5.56;100.00;98063.03;5002741;28;19932;-90
2023/10/28 16:39:43;;;;;;;;;;;;;;;5.59;100.00;98065.53;5002301;28;19925;-93
2023/10/28 16:42:08;;;;;;;;;;;;;;;5.60;100.00;98064.59;5001993;28;19918;-86
2023/10/28 16:44:34;;;;;;;;;;;;;;;5.57;100.00;98067.38;5002768;28;19929;-92
2023/10/28 16:46:59;;;;;;;;;;;;;;;5.55;100.00;98073.63;4984714;28;19925;-88
2023/10/28 16:49:24;;;;;;;;;;;;;;;5.52;100.00;98077.28;5002728;28;19925;-93
2023/10/28 16:51:51;;;;;;;;;;;;;;;5.52;100.00;98073.78;5002042;28;20011;-89
2023/10/28 16:54:16;;;;;;;;;;;;;;;5.53;100.00;98081.59;5003035;28;19932;-93
2023/10/28 16:56:42;;;;;;;;;;;;;;;5.53;100.00;98080.75;5001765;28;19917;-92
2023/10/28 16:59:07;;;;;;;;;;;;;;;5.50;100.00;98084.34;5001965;28;20004;-92
2023/10/28 17:01:32;;;;;;;;;;;;;;;5.53;100.00;98076.31;5001808;28;20360;-90
2023/10/28 17:03:59;;;;;;;;;;;;;;;5.53;100.00;98081.59;4985280;28;19941;-87
2023/10/28 17:06:27;;;;;;;;;;;;;;;5.53;100.00;98083.38;4983524;28;20428;-89
2023/10/28 17:08:54;;;;;;;;;;;;;;;5.53;100.00;98076.31;4984256;28;19925;-89
2023/10/28 17:11:23;;;;;;;;;;;;;;;5.53;100.00;98080.75;4997926;28;19944;-83
2023/10/28 17:13:49;;;;;;;;;;;;;;;5.53;100.00;98078.97;5002522;28;19961;-85
2023/10/28 17:16:14;;;;;;;;;;;;;;;5.54;100.00;98078.03;4999616;28;19961;-91
2023/10/28 17:18:39;;;;;;;;;;;;;;;5.52;100.00;98084.28;5001022;28;19975;-94
2023/10/28 17:21:05;;;;;;;;;;;;;;;5.49;100.00;98077.44;4983898;28;19918;-88
2023/10/28 17:23:31;;;;;;;;;;;;;;;6.08;100.00;98079.75;5003992;28;20411;-84
2023/10/28 17:25:56;;;;;;;;;;;;;;;6.67;100.00;98081.03;5004083;28;19922;-84
2023/10/28 17:28:21;;;;;;;;;;;;;;;7.01;100.00;98084.44;5000618;28;19929;-84
2023/10/28 17:30:47;;;;;;;;;;;;;;;7.21;100.00;98087.72;5000197;28;19961;-87
2023/10/28 17:33:12;;;;;;;;;;;;;;;7.39;100.00;98094.59;5005948;28;19918;-85
2023/10/28 17:35:40;;;;;;;;;;;;;;;7.53;100.00;98092.97;4989476;28;19922;-84
2023/10/28 17:38:05;;;;;;;;;;;;;;;7.65;100.00;98097.53;5013561;28;19971;-87
2023/10/28 17:40:30;;;;;;;;;;;;;;;7.76;100.00;98087.22;5003689;28;20398;-87
2023/10/28 17:42:56;;;;;;;;;;;;;;;7.85;100.00;98095.53;4988127;28;19933;-84
2023/10/28 17:45:21;;;;;;;;;;;;;;;7.91;100.00;98098.63;5003732;28;20057;-92
2023/10/28 17:47:46;;;;;;;;;;;;;;;7.99;100.00;98090.28;5002754;28;19929;-90
2023/10/28 17:50:11;;;;;;;;;;;;;;;8.04;100.00;98088.25;5004092;28;19928;-95
2023/10/28 17:52:37;;;;;;;;;;;;;;;8.14;100.00;98093.81;5007353;28;20005;-91
2023/10/28 17:55:02;;;;;;;;;;;;;;;8.19;100.00;98087.31;5008192;28;19952;-92
2023/10/28 17:57:28;;;;;;;;;;;;;;;8.26;100.00;98086.94;4986897;28;20288;-88
2023/10/28 17:59:53;;;;;;;;;;;;;;;8.30;100.00;98088.47;5004877;28;20372;-88
2023/10/28 18:02:20;;;;;;;;;;;;;;;8.35;100.00;98083.75;5002417;28;19929;-89
2023/10/28 18:04:45;;;;;;;;;;;;;;;8.42;100.00;98071.88;5001503;28;19968;-85
2023/10/28 18:07:13;;;;;;;;;;;;;;;8.46;100.00;98070.78;5005597;28;19953;-83
2023/10/28 18:09:38;;;;;;;;;;;;;;;8.51;100.00;98073.13;5005788;28;19917;-83
2023/10/28 18:12:04;;;;;;;;;;;;;;;8.56;100.00;98078.97;5004486;28;19932;-89
2023/10/28 18:14:30;;;;;;;;;;;;;;;8.62;100.00;98067.19;4985206;28;20344;-85
2023/10/28 18:16:55;;;;;;;;;;;;;;;10.97;100.00;98081.59;5003404;28;19921;-85
2023/10/28 18:19:23;;;;;;;;;;;;;;;11.14;100.00;98075.09;5003507;28;19924;-90
2023/10/28 18:21:50;;;;;;;;;;;;;;;8.54;100.00;98065.03;5010535;28;20272;-86
2023/10/28 18:24:15;;;;;;;;;;;;;;;7.80;100.00;98059.75;5001619;28;19968;-83
2023/10/28 18:26:41;;;;;;;;;;;;;;;7.48;100.00;98060.75;5005127;28;19968;-84
2023/10/28 18:29:06;;;;;;;;;;;;;;;7.28;100.00;98057.47;5003674;28;19922;-85
2023/10/28 18:31:31;;;;;;;;;;;;;;;7.08;100.00;98048.94;4986956;28;19953;-87
2023/10/28 18:33:58;;;;;;;;;;;;;;;6.94;100.00;98046.22;5003953;28;20284;-84
2023/10/28 18:36:24;;;;;;;;;;;;;;;6.87;100.00;98043.06;5006467;28;20273;-85
2023/10/28 18:38:50;;;;;;;;;;;;;;;6.80;100.00;98036.44;4988954;28;19918;-86
2023/10/28 18:41:15;;;;;;;;;;;;;;;6.63;100.00;98032.09;5001794;28;20479;-82
2023/10/28 18:43:41;;;;;;;;;;;;;;;6.64;100.00;98028.53;5004215;28;19918;-84
2023/10/28 18:46:06;;;;;;;;;;;;;;;6.60;100.00;98019.09;5004484;28;20269;-82
2023/10/28 18:48:32;;;;;;;;;;;;;;;6.59;100.00;98016.56;5003668;28;20280;-83
2023/10/28 18:51:04;;;;;;;;;;;;;;;6.52;100.00;98021.31;5000949;28;19925;-92